createdAt,value
2023-04-28T00:00:06.382Z,9.00
2023-04-28T00:02:34.438Z,8.90
2023-04-28T00:05:01.701Z,8.90
2023-04-28T00:07:28.602Z,8.90
2023-04-28T00:09:57.053Z,8.80
2023-04-28T00:12:24.048Z,8.80
2023-04-28T00:14:51.154Z,8.80
2023-04-28T00:17:17.870Z,8.70
2023-04-28T00:19:45.223Z,8.70
2023-04-28T00:22:11.959Z,8.70
2023-04-28T00:24:38.656Z,8.60
2023-04-28T00:27:05.611Z,8.60
2023-04-28T00:29:32.459Z,8.50
2023-04-28T00:31:59.228Z,8.50
2023-04-28T00:34:25.982Z,8.50
2023-04-28T00:36:52.707Z,8.50
2023-04-28T00:39:19.425Z,8.40
2023-04-28T00:41:46.155Z,8.40
2023-04-28T00:44:12.904Z,8.40
2023-04-28T00:46:39.837Z,8.30
2023-04-28T00:49:06.623Z,8.30
2023-04-28T00:51:33.927Z,8.20
2023-04-28T00:54:01.188Z,8.20
2023-04-28T00:56:31.272Z,8.20
2023-04-28T00:58:58.516Z,8.20
2023-04-28T01:01:25.652Z,8.10
2023-04-28T01:03:53.234Z,8.10
2023-04-28T01:06:20.634Z,8.10
2023-04-28T01:08:50.084Z,8.10
2023-04-28T01:11:17.514Z,8.10
2023-04-28T01:13:44.258Z,8.10
2023-04-28T01:16:11.491Z,8.20
2023-04-28T01:18:41.137Z,8.20
2023-04-28T01:21:07.822Z,8.20
2023-04-28T01:23:34.579Z,8.20
2023-04-28T01:26:01.968Z,8.20
2023-04-28T01:28:28.787Z,8.20
2023-04-28T01:30:56.511Z,8.20
2023-04-28T01:33:23.307Z,8.30
2023-04-28T01:35:49.998Z,8.30
2023-04-28T01:38:16.820Z,8.30
2023-04-28T01:40:43.597Z,8.30
2023-04-28T01:43:10.306Z,8.40
2023-04-28T01:45:36.995Z,8.40
2023-04-28T01:48:03.845Z,8.30
2023-04-28T01:50:30.840Z,8.30
2023-04-28T01:52:57.679Z,8.30
2023-04-28T01:55:24.722Z,8.30
2023-04-28T01:57:52.448Z,8.30
2023-04-28T02:00:19.283Z,8.30
2023-04-28T02:02:46.626Z,8.20
2023-04-28T02:05:13.426Z,8.20
2023-04-28T02:07:40.301Z,8.20
2023-04-28T02:10:08.178Z,8.20
2023-04-28T02:12:34.957Z,8.10
2023-04-28T02:15:01.748Z,8.10
2023-04-28T02:17:30.865Z,8.10
2023-04-28T02:19:57.651Z,8.10
2023-04-28T02:22:25.475Z,8.10
2023-04-28T02:24:52.375Z,8.10
2023-04-28T02:27:25.227Z,8.10
2023-04-28T02:29:52.832Z,8.10
2023-04-28T02:32:19.517Z,8.10
2023-04-28T02:34:46.222Z,8.00
2023-04-28T02:37:12.908Z,8.00
2023-04-28T02:39:40.176Z,8.00
2023-04-28T02:42:06.938Z,8.00
2023-04-28T02:44:33.696Z,8.00
2023-04-28T02:47:01.893Z,7.90
2023-04-28T02:49:28.684Z,7.90
2023-04-28T02:51:55.367Z,7.90
2023-04-28T02:54:27.655Z,8.00
2023-04-28T02:56:55.484Z,8.00
2023-04-28T02:59:23.197Z,8.00
2023-04-28T03:01:50.495Z,7.90
2023-04-28T03:04:20.626Z,7.90
2023-04-28T03:06:47.660Z,8.00
2023-04-28T03:09:16.374Z,8.00
2023-04-28T03:11:43.038Z,8.00
2023-04-28T03:14:09.824Z,8.00
2023-04-28T03:16:36.633Z,8.00
2023-04-28T03:19:03.670Z,8.10
2023-04-28T03:21:30.481Z,8.10
2023-04-28T03:23:57.164Z,8.10
2023-04-28T03:26:23.867Z,8.10
2023-04-28T03:28:50.593Z,8.10
2023-04-28T03:31:17.335Z,8.10
2023-04-28T03:33:45.590Z,8.10
2023-04-28T03:36:12.411Z,8.10
2023-04-28T03:38:39.177Z,8.20
2023-04-28T03:41:06.039Z,8.20
2023-04-28T03:43:33.435Z,8.20
2023-04-28T03:46:00.299Z,8.20
2023-04-28T03:48:27.306Z,8.20
2023-04-28T03:50:54.074Z,8.30
2023-04-28T03:53:20.994Z,8.20
2023-04-28T03:55:47.671Z,8.20
2023-04-28T03:58:14.428Z,8.20
2023-04-28T04:00:41.187Z,8.20
2023-04-28T04:03:08.274Z,8.20
2023-04-28T04:05:35.065Z,8.20
2023-04-28T04:08:03.068Z,8.30
2023-04-28T04:10:29.788Z,8.20
2023-04-28T04:12:56.541Z,8.30
2023-04-28T04:15:23.334Z,8.30
2023-04-28T04:17:50.151Z,8.40
2023-04-28T04:20:16.971Z,8.40
2023-04-28T04:22:43.605Z,8.50
2023-04-28T04:25:10.553Z,8.50
2023-04-28T04:27:37.421Z,8.50
2023-04-28T04:30:04.907Z,8.50
2023-04-28T04:32:31.805Z,8.60
2023-04-28T04:34:58.529Z,8.60
2023-04-28T04:37:25.256Z,8.70
2023-04-28T04:39:52.120Z,8.70
2023-04-28T04:42:25.246Z,8.80
2023-04-28T04:44:52.609Z,8.80
2023-04-28T04:47:19.705Z,8.90
2023-04-28T04:49:46.425Z,8.90
2023-04-28T04:52:13.210Z,8.90
2023-04-28T04:54:39.929Z,9.00
2023-04-28T04:57:07.303Z,9.00
2023-04-28T04:59:34.115Z,9.00
2023-04-28T05:02:00.983Z,9.10
2023-04-28T05:04:27.870Z,9.20
2023-04-28T05:06:54.699Z,9.20
2023-04-28T05:09:23.120Z,9.20
2023-04-28T05:11:49.848Z,9.30
2023-04-28T05:14:17.996Z,9.30
2023-04-28T05:16:45.074Z,9.40
2023-04-28T05:19:11.794Z,9.50
2023-04-28T05:21:38.582Z,9.60
2023-04-28T05:24:05.721Z,9.70
2023-04-28T05:26:32.483Z,9.70
2023-04-28T05:28:59.196Z,9.80
2023-04-28T05:31:26.023Z,9.90
2023-04-28T05:33:52.753Z,9.90
2023-04-28T05:36:19.437Z,10.00
2023-04-28T05:38:46.330Z,10.10
2023-04-28T05:41:13.049Z,10.10
2023-04-28T05:43:39.922Z,10.20
2023-04-28T05:46:14.866Z,10.30
2023-04-28T05:48:48.988Z,10.40
2023-04-28T05:51:15.762Z,10.40
2023-04-28T05:53:42.560Z,10.50
2023-04-28T05:56:09.329Z,10.60
2023-04-28T05:58:36.269Z,10.70
2023-04-28T06:01:03.012Z,10.80
2023-04-28T06:03:29.902Z,10.90
2023-04-28T06:05:56.885Z,10.90
2023-04-28T06:08:23.688Z,11.10
2023-04-28T06:10:50.477Z,11.20
2023-04-28T06:13:17.228Z,11.30
2023-04-28T06:15:43.945Z,11.40
2023-04-28T06:18:11.241Z,11.60
2023-04-28T06:20:38.091Z,11.80
2023-04-28T06:23:05.430Z,11.90
2023-04-28T06:25:32.229Z,12.00
2023-04-28T06:27:58.961Z,12.20
2023-04-28T06:30:25.707Z,12.40
2023-04-28T06:32:52.555Z,12.60
2023-04-28T06:35:19.378Z,12.70
2023-04-28T06:37:46.112Z,12.90
2023-04-28T06:40:12.846Z,13.00
2023-04-28T06:42:40.188Z,13.20
2023-04-28T06:45:07.471Z,13.30
2023-04-28T06:47:34.230Z,13.50
2023-04-28T06:50:01.930Z,13.50
2023-04-28T06:52:38.434Z,13.60
2023-04-28T06:55:07.737Z,13.70
2023-04-28T06:57:34.500Z,13.90
2023-04-28T07:00:01.641Z,13.90
2023-04-28T07:02:28.596Z,14.00
2023-04-28T07:04:55.689Z,14.10
2023-04-28T07:07:22.359Z,14.20
2023-04-28T07:09:49.013Z,14.30
2023-04-28T07:12:15.751Z,14.40
2023-04-28T07:14:42.618Z,14.50
2023-04-28T07:17:09.326Z,14.70
2023-04-28T07:19:36.174Z,14.70
2023-04-28T07:22:02.950Z,14.90
2023-04-28T07:24:30.713Z,15.00
2023-04-28T07:26:57.813Z,15.10
2023-04-28T07:29:24.752Z,15.20
2023-04-28T07:31:51.463Z,15.40
2023-04-28T07:34:18.563Z,15.40
2023-04-28T07:36:46.022Z,15.50
2023-04-28T07:39:12.893Z,15.60
2023-04-28T07:41:39.720Z,15.70
2023-04-28T07:44:08.328Z,15.80
2023-04-28T07:46:35.533Z,15.90
2023-04-28T07:49:03.002Z,16.00
2023-04-28T07:51:29.883Z,16.10
2023-04-28T07:53:57.254Z,16.10
2023-04-28T07:56:25.911Z,16.20
2023-04-28T07:58:52.984Z,16.30
2023-04-28T08:01:19.815Z,16.40
2023-04-28T08:03:46.867Z,16.50
2023-04-28T08:06:13.900Z,16.60
2023-04-28T08:08:40.906Z,16.70
2023-04-28T08:11:08.445Z,16.80
2023-04-28T08:13:35.459Z,16.90
2023-04-28T08:16:02.240Z,16.90
2023-04-28T08:18:29.954Z,17.00
2023-04-28T08:20:56.837Z,17.00
2023-04-28T08:23:23.664Z,17.10
2023-04-28T08:25:50.866Z,17.20
2023-04-28T08:28:17.786Z,17.20
2023-04-28T08:30:44.527Z,17.30
2023-04-28T08:33:11.377Z,17.40
2023-04-28T08:35:38.164Z,17.40
2023-04-28T08:38:05.473Z,17.50
2023-04-28T08:40:32.328Z,17.60
2023-04-28T08:43:00.196Z,17.60
2023-04-28T08:45:30.155Z,17.60
2023-04-28T08:47:58.303Z,17.60
2023-04-28T08:50:27.729Z,17.70
2023-04-28T08:52:56.817Z,17.90
2023-04-28T08:55:24.903Z,17.90
2023-04-28T08:57:52.043Z,18.00
2023-04-28T09:00:18.828Z,18.10
2023-04-28T09:02:45.731Z,18.20
2023-04-28T09:05:14.250Z,18.30
2023-04-28T09:07:41.337Z,18.30
2023-04-28T09:10:19.314Z,18.40
2023-04-28T09:12:46.702Z,18.50
2023-04-28T09:15:41.703Z,18.60
2023-04-28T09:18:09.191Z,18.70
2023-04-28T09:20:37.332Z,18.70
2023-04-28T09:23:18.759Z,18.80
2023-04-28T09:26:01.662Z,18.80
2023-04-28T09:28:28.909Z,18.80
2023-04-28T09:30:56.231Z,18.90
2023-04-28T09:33:23.275Z,19.00
2023-04-28T09:35:50.740Z,19.00
2023-04-28T09:38:19.560Z,19.00
2023-04-28T09:41:04.808Z,19.10
2023-04-28T09:43:33.971Z,19.10
2023-04-28T09:46:02.977Z,19.10
2023-04-28T09:48:38.165Z,19.10
2023-04-28T09:51:07.817Z,19.20
2023-04-28T09:53:35.655Z,19.10
2023-04-28T09:56:05.538Z,19.20
2023-04-28T09:58:35.442Z,19.10
2023-04-28T10:01:03.276Z,19.20
2023-04-28T10:03:31.417Z,19.10
2023-04-28T10:05:59.650Z,19.10
2023-04-28T10:08:27.615Z,19.20
2023-04-28T10:10:55.476Z,19.30
2023-04-28T10:13:23.350Z,19.30
2023-04-28T10:15:51.494Z,19.40
2023-04-28T10:18:18.843Z,19.40
2023-04-28T10:20:48.149Z,19.50
2023-04-28T10:23:45.583Z,19.50
2023-04-28T10:26:20.137Z,19.60
2023-04-28T10:28:48.551Z,19.60
2023-04-28T10:31:17.795Z,19.50
2023-04-28T10:33:44.947Z,19.50
2023-04-28T10:36:36.310Z,19.50
2023-04-28T10:40:10.025Z,19.50
2023-04-28T10:42:58.269Z,19.40
2023-04-28T10:46:05.312Z,19.40
2023-04-28T10:48:37.007Z,19.30
2023-04-28T10:51:09.942Z,19.30
2023-04-28T10:53:42.930Z,19.20
2023-04-28T10:56:16.869Z,19.10
2023-04-28T10:58:46.519Z,18.90
2023-04-28T11:01:22.901Z,18.50
2023-04-28T11:04:10.971Z,18.10
2023-04-28T11:07:07.939Z,17.70
2023-04-28T11:09:34.768Z,17.40
2023-04-28T11:12:02.096Z,17.20
2023-04-28T11:14:30.193Z,17.10
2023-04-28T11:17:13.421Z,17.00
2023-04-28T11:19:51.430Z,17.00
2023-04-28T11:22:20.573Z,17.00
2023-04-28T11:24:58.627Z,17.10
2023-04-28T11:27:27.104Z,17.10
2023-04-28T11:29:54.155Z,17.20
2023-04-28T11:32:34.960Z,17.20
2023-04-28T11:35:04.087Z,17.30
2023-04-28T11:37:31.219Z,17.30
2023-04-28T11:39:57.969Z,17.40
2023-04-28T11:42:27.348Z,17.30
2023-04-28T11:44:55.137Z,17.40
2023-04-28T11:47:33.855Z,17.40
2023-04-28T11:50:01.714Z,17.50
2023-04-28T11:52:28.672Z,17.50
2023-04-28T11:54:57.814Z,17.60
2023-04-28T11:57:25.571Z,17.70
2023-04-28T11:59:52.381Z,17.80
2023-04-28T12:02:31.914Z,18.00
2023-04-28T12:05:07.734Z,18.10
2023-04-28T12:07:45.364Z,18.20
2023-04-28T12:10:16.065Z,18.30
2023-04-28T12:12:50.860Z,18.30
2023-04-28T12:15:20.479Z,18.40
2023-04-28T12:17:48.713Z,18.40
2023-04-28T12:20:36.049Z,18.50
2023-04-28T12:23:03.061Z,18.50
2023-04-28T12:25:29.887Z,18.50
2023-04-28T12:28:02.528Z,18.50
2023-04-28T12:30:31.121Z,18.50
2023-04-28T12:32:58.203Z,18.60
2023-04-28T12:35:26.677Z,18.60
2023-04-28T12:37:55.446Z,18.70
2023-04-28T12:40:24.559Z,18.80
2023-04-28T12:42:51.783Z,18.90
2023-04-28T12:45:18.726Z,18.90
2023-04-28T12:47:46.358Z,18.90
2023-04-28T12:50:13.400Z,18.80
2023-04-28T12:52:40.312Z,18.70
2023-04-28T12:55:08.427Z,18.50
2023-04-28T12:57:38.926Z,18.50
2023-04-28T13:00:07.520Z,18.40
2023-04-28T13:02:35.088Z,18.30
2023-04-28T13:05:02.248Z,18.20
2023-04-28T13:07:30.563Z,18.10
2023-04-28T13:09:58.234Z,18.00
2023-04-28T13:12:25.238Z,17.90
2023-04-28T13:14:52.066Z,17.70
2023-04-28T13:17:18.777Z,17.70
2023-04-28T13:19:45.643Z,17.60
2023-04-28T13:22:12.623Z,17.50
2023-04-28T13:24:39.399Z,17.40
2023-04-28T13:27:09.948Z,17.40
2023-04-28T13:29:37.808Z,17.30
2023-04-28T13:32:07.597Z,17.20
2023-04-28T13:34:34.660Z,17.20
2023-04-28T13:37:01.310Z,17.20
2023-04-28T13:39:28.118Z,17.10
2023-04-28T13:41:54.822Z,17.00
2023-04-28T13:44:21.605Z,17.10
2023-04-28T13:46:48.662Z,17.00
2023-04-28T13:49:15.585Z,17.00
2023-04-28T13:51:42.808Z,17.00
2023-04-28T13:54:11.448Z,17.10
2023-04-28T13:56:38.676Z,17.00
2023-04-28T13:59:05.442Z,17.10
2023-04-28T14:01:32.301Z,17.00
2023-04-28T14:03:59.353Z,17.00
2023-04-28T14:06:27.521Z,17.00
2023-04-28T14:08:54.352Z,17.00
2023-04-28T14:11:21.147Z,17.00
2023-04-28T14:13:47.793Z,17.00
2023-04-28T14:16:14.700Z,16.90
2023-04-28T14:18:41.514Z,16.90
2023-04-28T14:21:08.584Z,16.80
2023-04-28T14:23:35.681Z,16.80
2023-04-28T14:26:02.752Z,16.80
2023-04-28T14:28:29.766Z,16.80
2023-04-28T14:30:56.952Z,16.70
2023-04-28T14:33:24.443Z,16.80
2023-04-28T14:35:51.218Z,16.70
2023-04-28T14:38:18.051Z,16.70
2023-04-28T14:40:44.869Z,16.70
2023-04-28T14:43:11.640Z,16.70
2023-04-28T14:45:38.433Z,16.70
2023-04-28T14:48:06.989Z,16.70
2023-04-28T14:50:33.985Z,16.70
2023-04-28T14:53:05.490Z,16.70
2023-04-28T14:55:33.242Z,16.70
2023-04-28T14:58:03.229Z,16.70
2023-04-28T15:00:31.003Z,16.70
2023-04-28T15:02:58.103Z,16.80
2023-04-28T15:05:24.928Z,16.70
2023-04-28T15:07:51.775Z,16.70
2023-04-28T15:10:18.510Z,16.70
2023-04-28T15:12:45.214Z,16.80
2023-04-28T15:15:12.976Z,16.80
2023-04-28T15:17:40.199Z,16.90
2023-04-28T15:20:08.188Z,16.90
2023-04-28T15:22:36.436Z,16.90
2023-04-28T15:25:03.379Z,16.90
2023-04-28T15:27:30.145Z,16.90
2023-04-28T15:29:56.975Z,16.90
2023-04-28T15:32:23.964Z,16.90
2023-04-28T15:34:51.059Z,16.90
2023-04-28T15:37:36.924Z,16.90
2023-04-28T15:40:08.301Z,16.90
2023-04-28T15:42:35.453Z,16.90
2023-04-28T15:45:04.898Z,16.90
2023-04-28T15:47:33.355Z,16.90
2023-04-28T15:50:00.292Z,16.80
2023-04-28T15:52:27.568Z,16.90
2023-04-28T15:54:56.108Z,16.80
2023-04-28T15:57:23.159Z,16.80
2023-04-28T15:59:51.722Z,16.80
2023-04-28T16:02:19.100Z,16.90
2023-04-28T16:04:47.031Z,16.80
2023-04-28T16:07:14.231Z,16.80
2023-04-28T16:09:41.187Z,16.80
2023-04-28T16:12:08.858Z,16.80
2023-04-28T16:14:37.500Z,16.80
2023-04-28T16:17:04.550Z,16.70
2023-04-28T16:19:31.564Z,16.70
2023-04-28T16:22:05.600Z,16.70
2023-04-28T16:24:32.661Z,16.70
2023-04-28T16:26:59.618Z,16.70
2023-04-28T16:29:26.545Z,16.70
2023-04-28T16:31:53.379Z,16.60
2023-04-28T16:34:20.383Z,16.60
2023-04-28T16:36:47.118Z,16.60
2023-04-28T16:39:13.989Z,16.60
2023-04-28T16:41:40.885Z,16.50
2023-04-28T16:44:08.762Z,16.60
2023-04-28T16:46:35.532Z,16.60
2023-04-28T16:49:02.266Z,16.60
2023-04-28T16:51:29.272Z,16.60
2023-04-28T16:53:55.926Z,16.60
2023-04-28T16:56:22.690Z,16.60
2023-04-28T16:58:49.461Z,16.50
2023-04-28T17:01:16.347Z,16.50
2023-04-28T17:03:43.305Z,16.50
2023-04-28T17:06:11.203Z,16.40
2023-04-28T17:08:39.309Z,16.40
2023-04-28T17:11:06.500Z,16.40
2023-04-28T17:13:33.436Z,16.30
2023-04-28T17:16:00.428Z,16.30
2023-04-28T17:18:27.551Z,16.30
2023-04-28T17:20:54.658Z,16.20
2023-04-28T17:23:21.843Z,16.20
2023-04-28T17:25:48.601Z,16.20
2023-04-28T17:28:15.286Z,16.20
2023-04-28T17:30:43.855Z,16.10
2023-04-28T17:33:13.768Z,16.10
2023-04-28T17:35:40.525Z,16.10
2023-04-28T17:38:07.344Z,16.10
2023-04-28T17:40:34.298Z,16.10
2023-04-28T17:43:01.212Z,16.00
2023-04-28T17:45:27.980Z,16.00
2023-04-28T17:47:56.485Z,16.00
2023-04-28T17:50:23.665Z,16.00
2023-04-28T17:52:50.409Z,16.00
2023-04-28T17:55:17.629Z,15.90
2023-04-28T17:57:44.968Z,15.90
2023-04-28T18:00:13.432Z,15.90
2023-04-28T18:02:40.960Z,15.90
2023-04-28T18:05:07.971Z,15.90
2023-04-28T18:07:34.786Z,15.90
2023-04-28T18:10:01.709Z,15.90
2023-04-28T18:12:28.514Z,15.90
2023-04-28T18:14:55.404Z,15.90
2023-04-28T18:17:23.264Z,15.90
2023-04-28T18:19:52.363Z,15.90
2023-04-28T18:22:19.033Z,15.90
2023-04-28T18:24:46.250Z,15.90
2023-04-28T18:27:13.235Z,15.90
2023-04-28T18:29:40.256Z,15.90
2023-04-28T18:32:07.270Z,15.90
2023-04-28T18:34:36.422Z,15.90
2023-04-28T18:37:06.416Z,15.80
2023-04-28T18:39:33.287Z,15.90
2023-04-28T18:42:05.854Z,15.80
2023-04-28T18:44:32.742Z,15.90
2023-04-28T18:47:00.226Z,15.80
2023-04-28T18:49:27.119Z,15.80
2023-04-28T18:51:53.957Z,15.80
2023-04-28T18:54:20.781Z,15.80
2023-04-28T18:56:50.425Z,15.80
2023-04-28T18:59:17.183Z,15.90
2023-04-28T19:01:44.257Z,15.80
2023-04-28T19:04:11.650Z,15.80
2023-04-28T19:06:39.475Z,15.80
2023-04-28T19:09:07.323Z,15.80
2023-04-28T19:11:34.178Z,15.80
2023-04-28T19:14:05.831Z,15.80
2023-04-28T19:16:33.138Z,15.80
2023-04-28T19:19:03.624Z,15.80
2023-04-28T19:21:41.543Z,15.70
2023-04-28T19:24:09.440Z,15.80
2023-04-28T19:26:39.231Z,15.80
2023-04-28T19:29:06.071Z,15.80
2023-04-28T19:31:32.918Z,15.70
2023-04-28T19:34:05.277Z,15.70
2023-04-28T19:36:37.589Z,15.70
2023-04-28T19:39:04.642Z,15.80
2023-04-28T19:41:37.982Z,15.80
2023-04-28T19:44:07.805Z,15.80
2023-04-28T19:46:40.519Z,15.80
2023-04-28T19:49:10.696Z,15.80
2023-04-28T19:51:42.227Z,15.70
2023-04-28T19:54:09.167Z,15.70
2023-04-28T19:56:36.028Z,15.70
2023-04-28T19:59:06.180Z,15.70
2023-04-28T20:01:34.017Z,15.70
2023-04-28T20:04:03.871Z,15.70
2023-04-28T20:06:34.303Z,15.70
2023-04-28T20:09:05.560Z,15.70
2023-04-28T20:11:41.340Z,15.70
2023-04-28T20:14:08.346Z,15.70
2023-04-28T20:16:35.413Z,15.70
2023-04-28T20:19:05.901Z,15.70
2023-04-28T20:21:37.587Z,15.70
2023-04-28T20:24:08.792Z,15.70
2023-04-28T20:26:37.930Z,15.60
2023-04-28T20:29:10.307Z,15.60
2023-04-28T20:31:45.613Z,15.70
2023-04-28T20:34:20.795Z,15.60
2023-04-28T20:36:58.645Z,15.70
2023-04-28T20:39:26.001Z,15.60
2023-04-28T20:41:59.999Z,15.60
2023-04-28T20:44:26.887Z,15.60
2023-04-28T20:46:53.694Z,15.60
2023-04-28T20:49:20.480Z,15.60
2023-04-28T20:51:51.649Z,15.60
2023-04-28T20:54:22.000Z,15.50
2023-04-28T20:56:48.823Z,15.50
2023-04-28T20:59:15.616Z,15.50
2023-04-28T21:01:42.517Z,15.50
2023-04-28T21:04:10.171Z,15.40
2023-04-28T21:06:37.426Z,15.40
2023-04-28T21:09:04.330Z,15.40
2023-04-28T21:11:31.449Z,15.30
2023-04-28T21:13:58.889Z,15.30
2023-04-28T21:16:28.517Z,15.30
2023-04-28T21:18:55.451Z,15.30
2023-04-28T21:21:25.222Z,15.30
2023-04-28T21:23:51.920Z,15.30
2023-04-28T21:26:34.615Z,15.30
2023-04-28T21:29:01.572Z,15.20
2023-04-28T21:31:28.493Z,15.20
2023-04-28T21:33:55.652Z,15.20
2023-04-28T21:36:22.502Z,15.30
2023-04-28T21:38:49.244Z,15.30
2023-04-28T21:41:16.098Z,15.30
2023-04-28T21:43:42.853Z,15.40
2023-04-28T21:46:09.710Z,15.30
2023-04-28T21:48:37.679Z,15.40
2023-04-28T21:51:04.847Z,15.40
2023-04-28T21:53:31.922Z,15.40
2023-04-28T21:55:58.790Z,15.40
2023-04-28T21:58:25.463Z,15.40
2023-04-28T22:00:52.442Z,15.40
2023-04-28T22:03:19.931Z,15.40
2023-04-28T22:05:46.923Z,15.50
2023-04-28T22:08:14.609Z,15.50
2023-04-28T22:10:41.629Z,15.50
2023-04-28T22:13:09.187Z,15.40
2023-04-28T22:15:36.054Z,15.50
2023-04-28T22:18:02.916Z,15.50
2023-04-28T22:20:29.854Z,15.50
2023-04-28T22:22:57.834Z,15.50
2023-04-28T22:25:25.040Z,15.50
2023-04-28T22:27:51.860Z,15.50
2023-04-28T22:30:18.742Z,15.50
2023-04-28T22:32:47.276Z,15.50
2023-04-28T22:35:14.815Z,15.40
2023-04-28T22:37:41.528Z,15.50
2023-04-28T22:40:09.134Z,15.40
2023-04-28T22:42:39.813Z,15.40
2023-04-28T22:45:07.256Z,15.50
2023-04-28T22:47:39.248Z,15.50
2023-04-28T22:50:09.762Z,15.40
2023-04-28T22:52:37.243Z,15.50
2023-04-28T22:55:04.892Z,15.50
2023-04-28T22:57:31.838Z,15.40
2023-04-28T22:59:58.697Z,15.40
2023-04-28T23:02:25.770Z,15.50
2023-04-28T23:04:52.858Z,15.50
2023-04-28T23:07:19.706Z,15.40
2023-04-28T23:09:46.454Z,15.40
2023-04-28T23:12:13.292Z,15.40
2023-04-28T23:14:40.334Z,15.40
2023-04-28T23:17:07.076Z,15.30
2023-04-28T23:19:35.765Z,15.30
2023-04-28T23:22:02.590Z,15.30
2023-04-28T23:24:29.461Z,15.20
2023-04-28T23:26:56.733Z,15.20
2023-04-28T23:29:23.596Z,15.20
2023-04-28T23:31:54.551Z,15.20
2023-04-28T23:34:23.421Z,15.20
2023-04-28T23:36:50.913Z,15.20
2023-04-28T23:39:18.478Z,15.20
2023-04-28T23:41:45.234Z,15.10
2023-04-28T23:44:11.972Z,15.10
2023-04-28T23:46:38.712Z,15.10
2023-04-28T23:49:05.448Z,15.10
2023-04-28T23:51:32.463Z,15.00
2023-04-28T23:53:59.470Z,15.00
2023-04-28T23:56:26.876Z,15.00
2023-04-28T23:58:53.632Z,15.00
